Aérodrome :
LOGIN :

S'inscrire | Disclaimer

   EN    FR    IT 

 










Légende :    VFR   VFR Marginal   IFR   IFR Intensif   IFR Très Intensif
Visi : 
Plafond : 
>= 8 km
>= 3000ft
5 à 8 km
1000 à 3000 ft
1500m à 5 km
500 à 1000 ft
800 à 1500m
200 à 500 ft
< 800m
< 200 ft
Symboles :   Orages  Brouillard  Fortes neiges  Fortes précipitations  Vent > 20 kt
SIGMETs :   Divers  Orages  Givrage  Turbulence  Onde Orograph.  Cendres Volcan.






- Altitude de l'aérodrome : 202 ft
- Code IATA : LGW


EGKK - London Gatwick

DERNIER METAR :
  • 271420Z 22012KT 190V260 9999 SCT033 15/07 Q1015

METARs EXPIRÉS :
  • 271350Z 22012KT 190V250 9999 SCT032 16/08 Q1015
  • 271320Z 22012KT 190V250 9999 SCT033 16/07 Q1015
  • 271250Z 23011KT 190V250 9999 FEW035 16/08 Q1015
  • 271220Z 24009KT 200V270 9999 FEW042 16/07 Q1015
  • 271150Z 21010KT 180V250 9999 FEW034 16/07 Q1016
  • 271120Z 24009KT 180V260 9999 FEW031 15/08 Q1016
  • 271050Z 23013KT 9999 VCSH SCT027 13/08 Q1016
  • 271020Z 24009KT 9999 FEW030 15/08 Q1016
  • 270950Z 23011KT 9999 FEW026 14/08 Q1015

TAF AMD TAF EGKK
Valide du 27 à 14h jusqu'au 28 à 18h UTC


271359Z 2714/2818 22009KT 9999 SCT030
TEMPO 2714/2720 7000 SHRA
PROB30
TEMPO 2714/2718 4000 +SHRA
BECMG 2800/2803 BKN010
TEMPO 2803/2815 5000 RADZ BKN007
PROB30
TEMPO 2803/2809 3000 DZ OVC004
BECMG 2812/2815 SCT010
PROB40
TEMPO 2815/2818 6000 RA SHRA BKN007



MET'MAP, la Météo Aéronautique d'un coup d'oeil ! - Copyright ORBIFLY Décembre 2007 - Disclaimer

ORBIFLY MET'MAP TEAM :

Programmation & Développement : Alexandra Zaïnal
Sur une idée originale de : Baudouin d'Aumeries
Soutien technique & logistique : Manuel Goepfert
Assistance : Marc-Olivier Méhu




SOURCES & CREDITS :

   NOAA